createdAt,value
2018-05-15T00:01:42.125Z,17.90
2018-05-15T00:04:08.379Z,17.90
2018-05-15T00:06:34.562Z,17.90
2018-05-15T00:09:00.765Z,17.90
2018-05-15T00:11:26.971Z,17.90
2018-05-15T00:13:53.174Z,17.80
2018-05-15T00:16:19.372Z,17.70
2018-05-15T00:18:46.327Z,17.80
2018-05-15T00:21:12.592Z,17.80
2018-05-15T00:23:38.804Z,17.80
2018-05-15T00:26:05.008Z,17.70
2018-05-15T00:28:31.237Z,17.60
2018-05-15T00:30:57.411Z,17.60
2018-05-15T00:33:23.588Z,17.50
2018-05-15T00:35:50.565Z,17.40
2018-05-15T00:38:16.763Z,17.40
2018-05-15T00:40:42.997Z,17.50
2018-05-15T00:43:09.167Z,17.50
2018-05-15T00:45:35.379Z,17.40
2018-05-15T00:48:01.597Z,17.40
2018-05-15T00:50:27.838Z,17.40
2018-05-15T00:52:54.002Z,17.30
2018-05-15T00:55:32.563Z,17.30
2018-05-15T00:57:58.799Z,17.30
2018-05-15T01:00:24.993Z,17.30
2018-05-15T01:02:51.918Z,17.10
2018-05-15T01:05:18.162Z,17.10
2018-05-15T01:07:44.367Z,17.00
2018-05-15T01:10:10.597Z,16.90
2018-05-15T01:12:36.795Z,16.80
2018-05-15T01:15:03.016Z,16.70
2018-05-15T01:17:29.198Z,16.70
2018-05-15T01:19:56.130Z,16.50
2018-05-15T01:22:22.343Z,16.50
2018-05-15T01:24:48.536Z,16.40
2018-05-15T01:27:14.780Z,16.30
2018-05-15T01:29:40.982Z,16.20
2018-05-15T01:32:07.174Z,16.10
2018-05-15T01:34:34.113Z,16.00
2018-05-15T01:37:00.294Z,15.90
2018-05-15T01:39:26.514Z,15.90
2018-05-15T01:41:52.688Z,15.80
2018-05-15T01:44:18.939Z,15.80
2018-05-15T01:46:45.139Z,15.70
2018-05-15T01:49:11.360Z,15.60
2018-05-15T01:51:37.593Z,15.60
2018-05-15T01:54:03.882Z,15.50
2018-05-15T01:56:30.073Z,15.50
2018-05-15T01:58:57.002Z,15.40
2018-05-15T02:01:23.218Z,15.40
2018-05-15T02:03:49.411Z,15.30
2018-05-15T02:06:15.642Z,15.30
2018-05-15T02:08:41.830Z,15.30
2018-05-15T02:11:08.774Z,15.30
2018-05-15T02:13:34.985Z,15.30
2018-05-15T02:16:02.023Z,15.40
2018-05-15T02:18:28.217Z,15.30
2018-05-15T02:20:54.443Z,15.40
2018-05-15T02:23:20.622Z,15.50
2018-05-15T02:25:46.831Z,15.50
2018-05-15T02:28:13.067Z,15.50
2018-05-15T02:30:39.295Z,15.50
2018-05-15T02:33:06.249Z,15.40
2018-05-15T02:35:33.186Z,15.40
2018-05-15T02:37:59.424Z,15.40
2018-05-15T02:40:25.646Z,15.40
2018-05-15T02:42:51.845Z,15.30
2018-05-15T02:45:18.103Z,15.20
2018-05-15T02:47:44.295Z,15.20
2018-05-15T02:50:10.583Z,15.20
2018-05-15T02:52:36.820Z,15.10
2018-05-15T02:55:03.044Z,15.20
2018-05-15T02:57:29.284Z,15.10
2018-05-15T02:59:55.493Z,15.10
2018-05-15T03:02:21.685Z,15.00
2018-05-15T03:04:47.872Z,14.90
2018-05-15T03:07:14.125Z,14.90
2018-05-15T03:09:40.314Z,14.80
2018-05-15T03:12:06.506Z,14.70
2018-05-15T03:14:33.423Z,14.70
2018-05-15T03:16:59.677Z,14.60
2018-05-15T03:19:26.699Z,14.50
2018-05-15T03:21:52.914Z,14.50
2018-05-15T03:24:19.109Z,14.50
2018-05-15T03:26:45.310Z,14.40
2018-05-15T03:29:11.498Z,14.30
2018-05-15T03:31:37.696Z,14.30
2018-05-15T03:34:03.919Z,14.20
2018-05-15T03:36:30.125Z,14.20
2018-05-15T03:38:56.309Z,14.10
2018-05-15T03:41:22.535Z,14.10
2018-05-15T03:43:48.741Z,14.10
2018-05-15T03:46:15.009Z,14.10
2018-05-15T03:48:41.201Z,14.10
2018-05-15T03:51:07.424Z,14.10
2018-05-15T03:53:33.621Z,14.00
2018-05-15T03:55:59.854Z,14.00
2018-05-15T03:58:26.029Z,14.00
2018-05-15T04:01:04.405Z,14.10
2018-05-15T04:03:42.713Z,14.10
2018-05-15T04:06:21.208Z,14.20
2018-05-15T04:08:47.390Z,14.20
2018-05-15T04:11:13.695Z,14.20
2018-05-15T04:13:39.818Z,14.20
2018-05-15T04:16:06.083Z,14.30
2018-05-15T04:18:32.310Z,14.30
2018-05-15T04:20:58.497Z,14.30
2018-05-15T04:23:25.502Z,14.30
2018-05-15T04:25:52.464Z,14.30
2018-05-15T04:28:18.708Z,14.30
2018-05-15T04:30:44.921Z,14.30
2018-05-15T04:33:11.107Z,14.30
2018-05-15T04:35:37.302Z,14.30
2018-05-15T04:38:03.635Z,14.40
2018-05-15T04:40:30.011Z,14.30
2018-05-15T04:42:56.246Z,14.20
2018-05-15T04:45:22.419Z,14.20
2018-05-15T04:47:48.670Z,14.30
2018-05-15T04:50:14.922Z,14.30
2018-05-15T04:52:41.861Z,14.20
2018-05-15T04:55:08.047Z,14.20
2018-05-15T04:57:34.229Z,14.30
2018-05-15T05:00:01.166Z,14.40
2018-05-15T05:02:27.425Z,14.40
2018-05-15T05:04:53.625Z,14.50
2018-05-15T05:07:20.599Z,14.50
2018-05-15T05:09:46.793Z,14.50
2018-05-15T05:12:13.061Z,14.60
2018-05-15T05:14:39.294Z,14.70
2018-05-15T05:17:06.736Z,14.70
2018-05-15T05:19:32.975Z,14.80
2018-05-15T05:21:59.206Z,14.80
2018-05-15T05:24:25.389Z,14.90
2018-05-15T05:26:52.337Z,15.10
2018-05-15T05:29:19.350Z,15.20
2018-05-15T05:31:45.554Z,15.20
2018-05-15T05:34:11.782Z,15.30
2018-05-15T05:36:38.003Z,15.50
2018-05-15T05:39:04.197Z,15.60
2018-05-15T05:41:30.402Z,15.70
2018-05-15T05:43:56.593Z,15.80
2018-05-15T05:46:22.920Z,15.80
2018-05-15T05:48:49.002Z,15.90
2018-05-15T05:51:15.919Z,16.10
2018-05-15T05:53:42.115Z,16.00
2018-05-15T05:56:08.302Z,16.10
2018-05-15T05:58:35.276Z,16.30
2018-05-15T06:01:01.482Z,16.20
2018-05-15T06:03:27.670Z,16.30
2018-05-15T06:06:08.770Z,16.30
2018-05-15T06:08:34.987Z,16.50
2018-05-15T06:13:34.077Z,16.60
2018-05-15T06:16:00.262Z,16.60
2018-05-15T06:18:26.448Z,16.70
2018-05-15T06:20:52.733Z,16.80
2018-05-15T06:23:19.018Z,16.80
2018-05-15T06:25:45.187Z,16.90
2018-05-15T06:28:11.447Z,17.00
2018-05-15T06:30:37.621Z,17.00
2018-05-15T06:33:03.843Z,17.10
2018-05-15T06:35:30.835Z,17.20
2018-05-15T06:37:57.040Z,17.20
2018-05-15T06:40:23.229Z,17.20
2018-05-15T06:42:50.191Z,17.30
2018-05-15T06:45:16.601Z,17.30
2018-05-15T06:47:43.625Z,17.50
2018-05-15T06:50:09.775Z,17.50
2018-05-15T06:52:35.973Z,17.60
2018-05-15T06:55:02.184Z,17.60
2018-05-15T06:57:28.401Z,17.70
2018-05-15T06:59:54.587Z,17.80
2018-05-15T07:02:20.819Z,17.90
2018-05-15T07:04:47.769Z,18.00
2018-05-15T07:07:14.028Z,17.90
2018-05-15T07:09:40.205Z,18.00
2018-05-15T07:12:06.413Z,18.10
2018-05-15T07:14:33.636Z,18.20
2018-05-15T07:16:59.867Z,18.30
2018-05-15T07:19:26.150Z,18.30
2018-05-15T07:21:52.252Z,18.40
2018-05-15T07:24:18.483Z,18.50
2018-05-15T07:26:44.669Z,18.50
2018-05-15T07:29:10.891Z,18.60
2018-05-15T07:31:37.053Z,18.70
2018-05-15T07:34:03.561Z,18.70
2018-05-15T07:36:29.799Z,18.70
2018-05-15T07:38:56.026Z,18.80
2018-05-15T07:41:22.209Z,18.90
2018-05-15T07:43:49.155Z,19.10
2018-05-15T07:46:16.108Z,19.20
2018-05-15T07:48:42.349Z,19.20
2018-05-15T07:51:08.550Z,19.30
2018-05-15T07:53:34.856Z,19.40
2018-05-15T07:56:01.727Z,19.40
2018-05-15T07:58:28.679Z,19.50
2018-05-15T08:00:54.856Z,19.40
2018-05-15T08:03:21.156Z,19.50
2018-05-15T08:05:47.350Z,19.60
2018-05-15T08:08:13.546Z,19.60
2018-05-15T08:10:39.730Z,19.60
2018-05-15T08:13:06.045Z,19.60
2018-05-15T08:15:32.223Z,19.70
2018-05-15T08:17:58.420Z,19.80
2018-05-15T08:20:24.603Z,19.90
2018-05-15T08:22:51.530Z,20.10
2018-05-15T08:25:17.730Z,20.00
2018-05-15T08:27:43.947Z,20.20
2018-05-15T08:30:10.174Z,20.20
2018-05-15T08:32:36.368Z,20.20
2018-05-15T08:35:03.348Z,20.20
2018-05-15T08:37:29.567Z,20.20
2018-05-15T08:39:55.779Z,20.30
2018-05-15T08:42:21.969Z,20.40
2018-05-15T08:44:48.199Z,20.50
2018-05-15T08:47:14.398Z,20.60
2018-05-15T08:49:40.628Z,20.80
2018-05-15T08:52:06.851Z,20.80
2018-05-15T08:54:33.100Z,20.90
2018-05-15T08:56:59.302Z,20.90
2018-05-15T08:59:25.499Z,21.00
2018-05-15T09:01:51.694Z,21.00
2018-05-15T09:04:17.953Z,21.10
2018-05-15T09:06:44.139Z,21.20
2018-05-15T09:09:10.375Z,21.30
2018-05-15T09:11:36.562Z,21.30
2018-05-15T09:14:02.807Z,21.30
2018-05-15T09:16:29.023Z,21.40
2018-05-15T09:18:55.256Z,21.40
2018-05-15T09:21:21.481Z,21.50
2018-05-15T09:23:47.813Z,21.50
2018-05-15T09:26:14.014Z,21.50
2018-05-15T09:28:40.244Z,21.50
2018-05-15T09:31:06.513Z,21.50
2018-05-15T09:33:32.757Z,21.60
2018-05-15T09:35:59.003Z,21.70
2018-05-15T09:38:25.181Z,21.70
2018-05-15T09:40:51.398Z,21.90
2018-05-15T09:43:44.711Z,21.90
2018-05-15T09:46:10.933Z,21.90
2018-05-15T09:48:37.110Z,21.90
2018-05-15T09:51:03.398Z,21.90
2018-05-15T09:53:29.635Z,21.80
2018-05-15T09:55:56.595Z,22.00
2018-05-15T09:58:22.779Z,22.00
2018-05-15T10:00:48.990Z,22.10
2018-05-15T10:03:23.927Z,22.20
2018-05-15T10:05:50.166Z,22.20
2018-05-15T10:08:16.351Z,22.30
2018-05-15T10:10:42.573Z,22.40
2018-05-15T10:13:08.826Z,22.50
2018-05-15T10:15:35.043Z,22.60
2018-05-15T10:18:01.234Z,22.60
2018-05-15T10:20:27.526Z,22.80
2018-05-15T10:22:54.546Z,22.80
2018-05-15T10:25:21.931Z,22.80
2018-05-15T10:27:48.287Z,22.80
2018-05-15T10:30:15.327Z,22.70
2018-05-15T10:32:41.534Z,22.70
2018-05-15T10:35:07.749Z,22.60
2018-05-15T10:37:33.946Z,22.50
2018-05-15T10:40:00.175Z,22.50
2018-05-15T10:42:26.399Z,22.50
2018-05-15T10:44:52.635Z,22.60
2018-05-15T10:47:18.829Z,22.60
2018-05-15T10:49:45.776Z,22.80
2018-05-15T10:52:12.062Z,22.80
2018-05-15T10:54:38.261Z,22.90
2018-05-15T10:57:04.434Z,22.90
2018-05-15T10:59:30.722Z,23.00
2018-05-15T11:01:56.946Z,23.00
2018-05-15T11:04:23.185Z,23.10
2018-05-15T11:06:49.466Z,23.20
2018-05-15T11:09:15.670Z,23.40
2018-05-15T11:11:41.910Z,23.50
2018-05-15T11:14:08.178Z,23.60
2018-05-15T11:16:34.655Z,23.70
2018-05-15T11:19:13.044Z,23.90
2018-05-15T11:21:51.315Z,24.00
2018-05-15T11:24:25.463Z,24.10
2018-05-15T11:26:51.760Z,24.20
2018-05-15T11:29:17.947Z,24.40
2018-05-15T11:31:44.236Z,24.40
2018-05-15T11:34:10.459Z,24.30
2018-05-15T11:36:36.751Z,24.30
2018-05-15T11:39:02.983Z,24.30
2018-05-15T11:41:29.276Z,24.10
2018-05-15T11:43:55.398Z,24.10
2018-05-15T11:46:21.725Z,24.20
2018-05-15T11:48:48.339Z,24.10
2018-05-15T11:51:15.185Z,24.10
2018-05-15T11:53:40.573Z,23.90
2018-05-15T11:56:06.902Z,23.90
2018-05-15T11:58:33.100Z,23.90
2018-05-15T12:00:59.327Z,24.00
2018-05-15T12:03:25.530Z,23.90
2018-05-15T12:05:51.718Z,24.00
2018-05-15T12:08:18.019Z,23.90
2018-05-15T12:10:44.189Z,23.90
2018-05-15T12:13:10.367Z,23.90
2018-05-15T12:15:36.602Z,23.90
2018-05-15T12:18:02.804Z,23.90
2018-05-15T12:20:29.005Z,24.00
2018-05-15T12:22:55.186Z,24.00
2018-05-15T12:25:22.163Z,24.00
2018-05-15T12:27:48.386Z,24.00
2018-05-15T12:30:14.614Z,24.00
2018-05-15T12:32:40.826Z,24.10
2018-05-15T12:35:07.073Z,24.10
2018-05-15T12:37:33.290Z,24.20
2018-05-15T12:39:59.459Z,24.30
2018-05-15T12:42:25.719Z,24.40
2018-05-15T12:44:51.920Z,24.50
2018-05-15T12:47:18.138Z,24.50
2018-05-15T12:49:44.353Z,24.50
2018-05-15T12:52:10.572Z,24.30
2018-05-15T12:54:36.755Z,24.00
2018-05-15T12:57:03.715Z,24.00
2018-05-15T12:59:29.930Z,24.00
2018-05-15T13:01:56.922Z,24.10
2018-05-15T13:04:23.134Z,24.10
2018-05-15T13:06:49.404Z,24.30
2018-05-15T13:09:15.598Z,24.40
2018-05-15T13:11:41.826Z,24.40
2018-05-15T13:14:08.003Z,24.40
2018-05-15T13:16:34.214Z,24.40
2018-05-15T13:19:00.399Z,24.20
2018-05-15T13:21:26.599Z,24.00
2018-05-15T13:23:53.602Z,24.30
2018-05-15T13:26:19.840Z,24.20
2018-05-15T13:28:46.040Z,24.30
2018-05-15T13:31:12.294Z,24.40
2018-05-15T13:33:38.753Z,24.50
2018-05-15T13:36:04.974Z,24.60
2018-05-15T13:38:31.169Z,24.70
2018-05-15T13:40:57.397Z,24.70
2018-05-15T13:43:23.626Z,24.80
2018-05-15T13:45:49.844Z,24.80
2018-05-15T13:48:16.072Z,24.80
2018-05-15T13:50:42.251Z,24.80
2018-05-15T13:53:09.210Z,24.80
2018-05-15T13:55:35.400Z,24.80
2018-05-15T13:58:01.604Z,25.00
2018-05-15T14:00:28.825Z,25.00
2018-05-15T14:02:55.042Z,24.80
2018-05-15T14:05:21.245Z,24.70
2018-05-15T14:07:47.490Z,24.80
2018-05-15T14:10:13.682Z,24.90
2018-05-15T14:12:39.881Z,24.80
2018-05-15T14:15:06.069Z,24.90
2018-05-15T14:17:32.275Z,25.00
2018-05-15T14:19:59.254Z,24.90
2018-05-15T14:22:26.395Z,24.80
2018-05-15T14:24:52.602Z,24.90
2018-05-15T14:27:18.819Z,24.90
2018-05-15T14:29:45.717Z,25.00
2018-05-15T14:32:11.927Z,25.00
2018-05-15T14:34:38.109Z,25.00
2018-05-15T14:37:05.581Z,25.00
2018-05-15T14:39:31.781Z,24.90
2018-05-15T14:42:10.183Z,25.00
2018-05-15T14:44:36.423Z,25.00
2018-05-15T14:47:02.650Z,25.00
2018-05-15T14:49:28.846Z,25.00
2018-05-15T14:51:55.046Z,25.10
2018-05-15T14:54:21.959Z,25.30
2018-05-15T14:56:48.214Z,25.30
2018-05-15T14:59:15.157Z,25.30
2018-05-15T15:01:41.347Z,25.20
2018-05-15T15:04:07.546Z,25.30
2018-05-15T15:06:33.744Z,25.40
2018-05-15T15:09:00.685Z,25.40
2018-05-15T15:11:26.851Z,25.40
2018-05-15T15:13:53.046Z,25.20
2018-05-15T15:16:19.422Z,25.00
2018-05-15T15:18:46.416Z,25.10
2018-05-15T15:21:13.364Z,25.00
2018-05-15T15:23:39.692Z,25.00
2018-05-15T15:26:06.636Z,25.30
2018-05-15T15:28:32.862Z,25.30
2018-05-15T15:30:59.806Z,25.50
2018-05-15T15:33:26.011Z,25.50
2018-05-15T15:35:52.193Z,25.50
2018-05-15T15:38:18.417Z,25.60
2018-05-15T15:40:44.619Z,26.10
2018-05-15T15:43:10.850Z,27.00
2018-05-15T15:45:37.053Z,28.20
2018-05-15T15:48:04.005Z,30.00
2018-05-15T15:50:30.744Z,29.90
2018-05-15T15:52:57.677Z,30.00
2018-05-15T15:55:23.882Z,29.90
2018-05-15T15:57:50.086Z,29.90
2018-05-15T16:00:16.337Z,30.10
2018-05-15T16:02:42.583Z,30.70
2018-05-15T16:05:08.771Z,31.30
2018-05-15T16:07:35.301Z,31.60
2018-05-15T16:10:01.772Z,32.10
2018-05-15T16:12:27.851Z,33.10
2018-05-15T16:14:54.073Z,33.00
2018-05-15T16:17:20.415Z,32.40
2018-05-15T16:19:46.694Z,32.10
2018-05-15T16:22:12.926Z,31.80
2018-05-15T16:24:39.118Z,32.00
2018-05-15T16:27:05.443Z,31.80
2018-05-15T16:29:31.681Z,32.20
2018-05-15T16:31:57.870Z,32.20
2018-05-15T16:34:24.092Z,32.00
2018-05-15T16:36:50.346Z,32.20
2018-05-15T16:39:16.609Z,32.80
2018-05-15T16:41:42.850Z,33.20
2018-05-15T16:44:09.123Z,33.50
2018-05-15T16:46:35.302Z,33.40
2018-05-15T16:49:01.511Z,33.30
2018-05-15T16:51:27.859Z,33.20
2018-05-15T16:53:54.239Z,32.70
2018-05-15T16:56:20.590Z,31.90
2018-05-15T16:58:46.894Z,31.00
2018-05-15T17:01:13.038Z,30.30
2018-05-15T17:03:39.278Z,29.80
2018-05-15T17:06:05.538Z,29.20
2018-05-15T17:08:32.534Z,27.90
2018-05-15T17:10:59.359Z,27.90
2018-05-15T17:13:25.823Z,27.60
2018-05-15T17:15:52.089Z,27.40
2018-05-15T17:18:18.357Z,27.30
2018-05-15T17:20:44.802Z,27.40
2018-05-15T17:23:11.425Z,27.80
2018-05-15T17:25:37.663Z,28.00
2018-05-15T17:28:04.350Z,28.30
2018-05-15T17:30:30.747Z,28.00
2018-05-15T17:32:56.953Z,27.70
2018-05-15T17:35:23.518Z,27.50
2018-05-15T17:37:49.716Z,27.20
2018-05-15T17:40:16.070Z,26.60
2018-05-15T17:42:43.217Z,25.90
2018-05-15T17:45:09.470Z,25.80
2018-05-15T17:47:35.963Z,25.70
2018-05-15T17:50:02.209Z,25.40
2018-05-15T17:52:28.779Z,25.30
2018-05-15T17:54:55.058Z,25.50
2018-05-15T17:57:21.326Z,25.80
2018-05-15T17:59:47.612Z,25.80
2018-05-15T18:02:15.844Z,26.20
2018-05-15T18:04:42.837Z,26.20
2018-05-15T18:07:09.163Z,26.20
2018-05-15T18:09:35.489Z,26.00
2018-05-15T18:12:01.746Z,25.70
2018-05-15T18:14:27.993Z,25.50
2018-05-15T18:16:54.195Z,25.20
2018-05-15T18:19:20.614Z,25.00
2018-05-15T18:21:46.942Z,24.70
2018-05-15T18:24:13.162Z,24.50
2018-05-15T18:26:39.371Z,24.50
2018-05-15T18:29:05.735Z,24.40
2018-05-15T18:31:31.950Z,24.40
2018-05-15T18:33:59.623Z,24.20
2018-05-15T18:36:25.914Z,23.90
2018-05-15T18:38:53.001Z,23.90
2018-05-15T18:41:19.271Z,23.90
2018-05-15T18:43:45.462Z,23.90
2018-05-15T18:46:11.686Z,24.00
2018-05-15T18:48:38.030Z,23.90
2018-05-15T18:51:04.364Z,23.80
2018-05-15T18:53:30.742Z,23.80
2018-05-15T18:55:56.926Z,23.80
2018-05-15T18:58:23.176Z,23.80
2018-05-15T19:00:49.445Z,23.80
2018-05-15T19:03:15.659Z,23.80
2018-05-15T19:05:42.140Z,23.70
2018-05-15T19:08:10.909Z,23.60
2018-05-15T19:10:37.099Z,23.40
2018-05-15T19:13:03.360Z,23.30
2018-05-15T19:15:29.615Z,23.20
2018-05-15T19:17:55.827Z,23.00
2018-05-15T19:20:22.014Z,22.90
2018-05-15T19:22:48.226Z,22.80
2018-05-15T19:25:14.427Z,22.60
2018-05-15T19:27:40.876Z,22.50
2018-05-15T19:30:07.891Z,22.20
2018-05-15T19:32:38.032Z,22.20
2018-05-15T19:35:07.515Z,22.20
2018-05-15T19:37:34.783Z,21.80
2018-05-15T19:40:07.190Z,21.70
2018-05-15T19:42:33.725Z,21.60
2018-05-15T19:45:00.037Z,21.40
2018-05-15T19:47:26.258Z,21.20
2018-05-15T19:49:52.468Z,21.10
2018-05-15T19:52:18.708Z,21.00
2018-05-15T19:54:45.109Z,20.90
2018-05-15T19:57:11.284Z,20.90
2018-05-15T19:59:39.151Z,20.70
2018-05-15T20:02:05.455Z,20.70
2018-05-15T20:04:31.674Z,20.70
2018-05-15T20:06:58.171Z,20.70
2018-05-15T20:09:24.438Z,20.80
2018-05-15T20:11:51.678Z,20.70
2018-05-15T20:14:19.109Z,20.80
2018-05-15T20:16:45.362Z,20.80
2018-05-15T20:19:11.607Z,20.70
2018-05-15T20:21:37.907Z,20.70
2018-05-15T20:24:04.130Z,20.70
2018-05-15T20:26:30.358Z,20.60
2018-05-15T20:28:56.561Z,20.60
2018-05-15T20:31:22.775Z,20.50
2018-05-15T20:33:49.693Z,20.30
2018-05-15T20:36:15.980Z,20.30
2018-05-15T20:38:42.215Z,20.20
2018-05-15T20:41:08.479Z,20.20
2018-05-15T20:43:34.654Z,20.10
2018-05-15T20:46:00.854Z,20.00
2018-05-15T20:48:27.189Z,20.00
2018-05-15T20:50:53.372Z,20.00
2018-05-15T20:53:19.880Z,20.00
2018-05-15T20:55:46.066Z,20.00
2018-05-15T20:58:12.973Z,19.90
2018-05-15T21:00:39.188Z,19.90
2018-05-15T21:03:06.156Z,19.90
2018-05-15T21:05:32.374Z,19.80
2018-05-15T21:07:58.612Z,19.90
2018-05-15T21:10:25.572Z,19.80
2018-05-15T21:12:51.750Z,19.80
2018-05-15T21:15:17.939Z,19.80
2018-05-15T21:17:44.866Z,19.60
2018-05-15T21:20:11.042Z,19.60
2018-05-15T21:22:37.218Z,19.50
2018-05-15T21:25:03.406Z,19.50
2018-05-15T21:27:29.632Z,19.40
2018-05-15T21:29:55.825Z,19.40
2018-05-15T21:32:22.019Z,19.30
2018-05-15T21:34:48.186Z,19.20
2018-05-15T21:37:14.361Z,19.10
2018-05-15T21:39:40.558Z,19.10
2018-05-15T21:42:06.762Z,19.10
2018-05-15T21:44:33.693Z,19.10
2018-05-15T21:46:59.881Z,19.10
2018-05-15T21:49:26.049Z,19.10
2018-05-15T21:51:52.978Z,19.10
2018-05-15T21:54:19.155Z,19.10
2018-05-15T21:56:45.343Z,19.10
2018-05-15T21:59:12.278Z,19.10
2018-05-15T22:01:38.478Z,19.10
2018-05-15T22:04:05.377Z,19.10
2018-05-15T22:06:31.683Z,19.00
2018-05-15T22:08:57.865Z,19.00
2018-05-15T22:11:23.861Z,19.00
2018-05-15T22:14:02.155Z,18.90
2018-05-15T22:16:41.207Z,18.90
2018-05-15T22:19:19.536Z,18.90
2018-05-15T22:21:57.804Z,18.90
2018-05-15T22:24:27.827Z,18.80
2018-05-15T22:26:54.001Z,18.90
2018-05-15T22:29:20.231Z,18.90
2018-05-15T22:31:46.428Z,18.90
2018-05-15T22:34:12.626Z,18.90
2018-05-15T22:36:38.867Z,18.90
2018-05-15T22:39:05.118Z,18.90
2018-05-15T22:41:31.597Z,18.90
2018-05-15T22:43:57.847Z,18.90
2018-05-15T22:46:24.751Z,18.80
2018-05-15T22:48:50.947Z,18.80
2018-05-15T22:51:17.116Z,18.80
2018-05-15T22:53:43.329Z,18.80
2018-05-15T22:56:09.496Z,18.80
2018-05-15T22:58:36.407Z,18.90
2018-05-15T23:01:02.658Z,18.80
2018-05-15T23:03:28.841Z,18.80
2018-05-15T23:05:55.039Z,18.80
2018-05-15T23:08:21.241Z,18.80
2018-05-15T23:10:48.168Z,18.70
2018-05-15T23:13:14.351Z,18.70
2018-05-15T23:15:41.360Z,18.70
2018-05-15T23:18:07.591Z,18.60
2018-05-15T23:20:33.803Z,18.60
2018-05-15T23:22:59.981Z,18.70
2018-05-15T23:25:26.157Z,18.60
2018-05-15T23:27:52.367Z,18.70
2018-05-15T23:30:18.563Z,18.70
2018-05-15T23:32:45.726Z,18.80
2018-05-15T23:35:11.883Z,18.70
2018-05-15T23:37:39.015Z,18.70
2018-05-15T23:40:05.235Z,18.70
2018-05-15T23:42:31.470Z,18.70
2018-05-15T23:44:57.644Z,18.70
2018-05-15T23:47:23.835Z,18.80
2018-05-15T23:49:50.014Z,18.80
2018-05-15T23:52:16.206Z,18.80
2018-05-15T23:54:43.165Z,18.80
2018-05-15T23:57:09.381Z,18.80
2018-05-15T23:59:35.554Z,18.70
